Etihad Airways Virtual Airport Information Service

Zurich Airport

ICAO: LSZH Country: Switzerland
Latitude: 47.4647 Longitude: 8.54917
Latest Arrival : ETD73 (OMAA-LSZH) Latest Departure : ETD74 (LSZH-OMAA)


WX CaptureLIVE
Data provided by noaa.gov | Recorded at 18:19:41

METAR : LSZH 081750Z 24001KT CAVOK 20/01 Q1022 NOSIG

TAF : LSZH 081725Z 0818/0924 VRB02KT CAVOK TX23/0915Z TN04/0905Z TEMPO 0913/0919 05005KT 9999 FEW070


Runway Data for LSZH
Data provided by openaviationdata.com

Runway ID Mag Var Hdg Length Elevation Surface ILS Freq ILS Id ILS Slope

Zurich Airport, Switzerland
Use only for reference purposes